createdAt,value
2019-02-06T00:00:53.403Z,28.98
2019-02-06T00:02:55.109Z,27.82
2019-02-06T00:04:57.113Z,28.45
2019-02-06T00:06:58.949Z,24.77
2019-02-06T00:09:00.769Z,24.57
2019-02-06T00:11:03.146Z,26.12
2019-02-06T00:13:05.603Z,26.52
2019-02-06T00:15:07.598Z,27.62
2019-02-06T00:17:09.428Z,26.68
2019-02-06T00:19:11.358Z,26.48
2019-02-06T00:21:13.447Z,26.12
2019-02-06T00:23:15.245Z,27.62
2019-02-06T00:25:17.076Z,26.52
2019-02-06T00:27:18.782Z,27.30
2019-02-06T00:29:20.549Z,26.97
2019-02-06T00:31:22.509Z,26.02
2019-02-06T00:33:24.249Z,26.82
2019-02-06T00:35:26.294Z,28.17
2019-02-06T00:37:28.171Z,26.93
2019-02-06T00:39:30.202Z,30.27
2019-02-06T00:41:32.181Z,27.58
2019-02-06T00:43:34.089Z,25.75
2019-02-06T00:45:35.778Z,26.50
2019-02-06T00:47:37.888Z,27.52
2019-02-06T00:49:48.113Z,25.92
2019-02-06T00:51:49.834Z,25.15
2019-02-06T00:53:51.642Z,26.30
2019-02-06T00:55:53.367Z,22.58
2019-02-06T00:57:55.472Z,24.45
2019-02-06T00:59:58.554Z,26.85
2019-02-06T01:02:00.498Z,25.27
2019-02-06T01:04:03.105Z,26.25
2019-02-06T01:06:05.027Z,26.25
2019-02-06T01:08:07.029Z,24.45
2019-02-06T01:10:10.983Z,25.23
2019-02-06T01:12:12.789Z,26.82
2019-02-06T01:14:14.503Z,25.32
2019-02-06T01:16:16.345Z,26.95
2019-02-06T01:18:18.158Z,26.20
2019-02-06T01:20:19.993Z,26.35
2019-02-06T01:22:21.925Z,24.65
2019-02-06T01:24:24.034Z,25.35
2019-02-06T01:26:25.740Z,25.12
2019-02-06T01:28:27.593Z,26.20
2019-02-06T01:30:33.930Z,26.55
2019-02-06T01:32:35.633Z,24.37
2019-02-06T01:34:37.586Z,24.77
2019-02-06T01:36:39.440Z,25.40
2019-02-06T01:38:41.354Z,22.07
2019-02-06T01:40:43.443Z,25.35
2019-02-06T01:42:45.356Z,25.20
2019-02-06T01:44:47.073Z,24.50
2019-02-06T01:46:48.906Z,24.63
2019-02-06T01:48:50.629Z,24.12
2019-02-06T01:50:52.635Z,24.70
2019-02-06T01:52:54.564Z,23.95
2019-02-06T01:54:56.275Z,23.75
2019-02-06T01:56:58.115Z,22.82
2019-02-06T01:59:00.133Z,24.43
2019-02-06T02:01:01.966Z,23.27
2019-02-06T02:03:03.890Z,22.45
2019-02-06T02:05:05.903Z,23.07
2019-02-06T02:07:07.914Z,24.80
2019-02-06T02:09:19.033Z,24.32
2019-02-06T02:11:20.938Z,21.70
2019-02-06T02:13:22.740Z,22.87
2019-02-06T02:15:24.888Z,21.77
2019-02-06T02:17:27.053Z,22.27
2019-02-06T02:19:28.757Z,24.15
2019-02-06T02:21:31.007Z,21.85
2019-02-06T02:23:32.924Z,24.37
2019-02-06T02:25:34.802Z,22.55
2019-02-06T02:27:36.741Z,22.60
2019-02-06T02:29:39.716Z,18.85
2019-02-06T02:31:41.531Z,22.85
2019-02-06T02:33:43.648Z,21.15
2019-02-06T02:35:45.861Z,22.48
2019-02-06T02:37:47.768Z,22.87
2019-02-06T02:39:49.641Z,22.48
2019-02-06T02:41:51.340Z,24.50
2019-02-06T02:43:53.346Z,21.52
2019-02-06T02:45:55.166Z,23.40
2019-02-06T02:47:56.975Z,23.10
2019-02-06T02:49:58.698Z,24.23
2019-02-06T02:52:00.543Z,23.62
2019-02-06T02:54:02.345Z,24.23
2019-02-06T02:56:04.260Z,24.72
2019-02-06T02:58:06.200Z,26.42
2019-02-06T03:00:12.571Z,26.95
2019-02-06T03:02:34.065Z,26.40
2019-02-06T03:04:40.736Z,28.92
2019-02-06T03:06:42.474Z,28.55
2019-02-06T03:08:44.262Z,32.25
2019-02-06T03:10:45.960Z,29.45
2019-02-06T03:15:51.374Z,26.17
2019-02-06T03:17:53.204Z,31.55
2019-02-06T03:19:55.018Z,30.85
2019-02-06T03:21:56.829Z,34.33
2019-02-06T03:23:58.662Z,30.35
2019-02-06T03:26:00.577Z,32.75
2019-02-06T03:28:03.414Z,33.83
2019-02-06T03:30:07.089Z,33.10
2019-02-06T03:32:10.716Z,33.15
2019-02-06T03:34:12.435Z,33.02
2019-02-06T03:36:14.509Z,32.58
2019-02-06T03:38:16.415Z,31.75
2019-02-06T03:40:18.473Z,33.40
2019-02-06T03:42:20.216Z,35.15
2019-02-06T03:44:21.926Z,33.65
2019-02-06T03:46:23.634Z,33.60
2019-02-06T03:48:25.465Z,34.08
2019-02-06T03:50:27.287Z,34.80
2019-02-06T03:52:28.983Z,35.95
2019-02-06T03:54:30.957Z,33.90
2019-02-06T03:56:32.856Z,33.35
2019-02-06T03:58:34.570Z,36.60
2019-02-06T04:00:36.464Z,32.65
2019-02-06T04:02:38.274Z,35.92
2019-02-06T04:04:39.996Z,32.93
2019-02-06T04:06:53.379Z,34.03
2019-02-06T04:08:45.739Z,37.03
2019-02-06T04:10:47.489Z,32.73
2019-02-06T04:12:49.313Z,31.05
2019-02-06T04:14:51.026Z,34.10
2019-02-06T04:16:53.116Z,30.32
2019-02-06T04:18:54.837Z,30.92
2019-02-06T04:20:56.671Z,31.48
2019-02-06T04:22:58.473Z,32.08
2019-02-06T04:25:00.211Z,30.37
2019-02-06T04:27:01.997Z,32.40
2019-02-06T04:29:03.790Z,30.27
2019-02-06T04:31:05.590Z,29.40
2019-02-06T04:33:07.883Z,32.35
2019-02-06T04:35:10.460Z,31.85
2019-02-06T04:37:12.261Z,31.68
2019-02-06T04:39:14.002Z,32.60
2019-02-06T04:41:16.017Z,31.75
2019-02-06T04:43:17.725Z,30.88
2019-02-06T04:45:19.444Z,31.70
2019-02-06T04:47:21.158Z,33.13
2019-02-06T04:49:22.856Z,30.82
2019-02-06T04:51:24.619Z,33.10
2019-02-06T04:53:28.142Z,31.70
2019-02-06T04:55:30.025Z,34.45
2019-02-06T04:57:31.721Z,34.08
2019-02-06T04:59:33.439Z,34.13
2019-02-06T05:01:35.262Z,33.70
2019-02-06T05:03:36.982Z,31.23
2019-02-06T05:05:38.685Z,32.10
2019-02-06T05:07:42.156Z,31.87
2019-02-06T05:09:44.183Z,30.05
2019-02-06T05:11:45.889Z,30.12
2019-02-06T05:13:47.758Z,30.37
2019-02-06T05:15:49.750Z,29.50
2019-02-06T05:17:51.465Z,31.97
2019-02-06T05:19:53.544Z,32.08
2019-02-06T05:21:55.249Z,32.55
2019-02-06T05:23:57.309Z,31.37
2019-02-06T05:25:59.138Z,30.08
2019-02-06T05:28:00.953Z,31.93
2019-02-06T05:30:04.646Z,32.58
2019-02-06T05:32:06.475Z,31.50
2019-02-06T05:34:08.339Z,32.42
2019-02-06T05:36:10.153Z,34.95
2019-02-06T05:38:11.953Z,30.23
2019-02-06T05:40:13.869Z,33.78
2019-02-06T05:42:16.098Z,34.30
2019-02-06T05:44:17.865Z,34.45
2019-02-06T05:46:19.598Z,33.23
2019-02-06T05:48:21.423Z,31.25
2019-02-06T05:50:23.667Z,31.52
2019-02-06T05:52:25.585Z,32.88
2019-02-06T05:54:27.486Z,32.75
2019-02-06T05:56:29.193Z,36.95
2019-02-06T05:58:31.117Z,32.17
2019-02-06T06:00:44.718Z,29.82
2019-02-06T06:02:46.485Z,31.17
2019-02-06T06:04:50.462Z,31.00
2019-02-06T06:06:52.180Z,31.75
2019-02-06T06:08:54.006Z,30.02
2019-02-06T06:10:55.734Z,30.75
2019-02-06T06:12:57.561Z,31.95
2019-02-06T06:14:59.275Z,30.55
2019-02-06T06:17:01.010Z,30.35
2019-02-06T06:19:03.431Z,31.70
2019-02-06T06:21:05.373Z,27.80
2019-02-06T06:23:07.082Z,28.15
2019-02-06T06:25:09.328Z,28.38
2019-02-06T06:27:11.040Z,31.93
2019-02-06T06:29:12.845Z,31.17
2019-02-06T06:31:14.918Z,27.30
2019-02-06T06:33:16.677Z,31.57
2019-02-06T06:35:18.614Z,31.15
2019-02-06T06:37:20.550Z,30.25
2019-02-06T06:39:25.509Z,31.00
2019-02-06T06:41:27.509Z,29.77
2019-02-06T06:43:29.416Z,32.03
2019-02-06T06:45:31.421Z,31.05
2019-02-06T06:47:33.228Z,32.10
2019-02-06T06:49:34.960Z,28.75
2019-02-06T06:51:36.763Z,29.02
2019-02-06T06:53:38.477Z,33.08
2019-02-06T06:55:40.203Z,32.15
2019-02-06T06:57:42.382Z,29.67
2019-02-06T06:59:44.198Z,29.60
2019-02-06T07:01:46.033Z,30.75
2019-02-06T07:03:47.769Z,30.62
2019-02-06T07:05:49.782Z,29.92
2019-02-06T07:07:53.056Z,29.40
2019-02-06T07:09:55.576Z,31.40
2019-02-06T07:11:57.362Z,28.25
2019-02-06T07:13:59.098Z,29.82
2019-02-06T07:16:01.097Z,26.23
2019-02-06T07:18:03.795Z,27.93
2019-02-06T07:20:07.093Z,27.32
2019-02-06T07:22:08.919Z,27.85
2019-02-06T07:24:10.769Z,27.48
2019-02-06T07:26:12.540Z,26.10
2019-02-06T07:28:14.352Z,27.62
2019-02-06T07:30:31.404Z,29.27
2019-02-06T07:32:36.148Z,28.12
2019-02-06T07:34:36.770Z,26.60
2019-02-06T07:36:38.605Z,27.70
2019-02-06T07:38:40.881Z,28.23
2019-02-06T07:40:42.582Z,26.73
2019-02-06T07:42:44.473Z,29.15
2019-02-06T07:44:46.339Z,27.60
2019-02-06T07:46:52.189Z,26.45
2019-02-06T07:48:54.189Z,24.92
2019-02-06T07:50:56.502Z,25.50
2019-02-06T07:52:58.498Z,26.35
2019-02-06T07:55:00.433Z,26.25
2019-02-06T07:57:06.322Z,28.12
2019-02-06T07:59:10.521Z,27.13
2019-02-06T08:01:12.457Z,25.60
2019-02-06T08:03:14.488Z,24.05
2019-02-06T08:05:17.242Z,26.97
2019-02-06T08:07:20.071Z,25.30
2019-02-06T08:09:22.156Z,25.20
2019-02-06T08:11:24.394Z,25.12
2019-02-06T08:13:26.407Z,23.90
2019-02-06T08:15:28.413Z,25.02
2019-02-06T08:17:31.029Z,25.70
2019-02-06T08:19:32.735Z,25.82
2019-02-06T08:21:34.434Z,25.75
2019-02-06T08:23:36.580Z,24.25
2019-02-06T08:25:38.492Z,26.27
2019-02-06T08:27:40.955Z,24.90
2019-02-06T08:29:42.825Z,24.57
2019-02-06T08:31:54.138Z,23.52
2019-02-06T08:33:56.133Z,23.80
2019-02-06T08:35:57.881Z,23.40
2019-02-06T08:38:08.233Z,21.87
2019-02-06T08:40:10.279Z,23.40
2019-02-06T08:42:12.257Z,22.48
2019-02-06T08:44:14.417Z,21.20
2019-02-06T08:46:34.246Z,21.27
2019-02-06T08:48:35.963Z,21.37
2019-02-06T08:50:37.775Z,23.92
2019-02-06T08:52:42.705Z,21.30
2019-02-06T08:54:44.642Z,22.02
2019-02-06T08:56:46.557Z,21.40
2019-02-06T08:58:48.257Z,21.40
2019-02-06T09:00:50.073Z,19.90
2019-02-06T09:02:52.025Z,22.60
2019-02-06T09:04:58.417Z,21.15
2019-02-06T09:07:03.298Z,18.23
2019-02-06T09:09:08.781Z,19.65
2019-02-06T09:11:11.771Z,21.10
2019-02-06T09:13:13.816Z,20.90
2019-02-06T09:15:15.983Z,20.12
2019-02-06T09:17:17.887Z,18.23
2019-02-06T09:19:19.761Z,20.55
2019-02-06T09:21:21.569Z,20.02
2019-02-06T09:23:23.708Z,19.02
2019-02-06T09:25:25.654Z,20.32
2019-02-06T09:27:27.361Z,18.48
2019-02-06T09:29:29.420Z,19.57
2019-02-06T09:31:31.449Z,20.88
2019-02-06T09:33:33.159Z,18.57
2019-02-06T09:35:35.038Z,18.25
2019-02-06T09:37:36.946Z,18.40
2019-02-06T09:39:41.349Z,18.20
2019-02-06T09:41:43.361Z,20.37
2019-02-06T09:43:45.177Z,19.17
2019-02-06T09:45:46.881Z,18.27
2019-02-06T09:47:49.361Z,18.80
2019-02-06T09:49:51.194Z,17.70
2019-02-06T09:51:52.902Z,18.30
2019-02-06T09:54:06.953Z,16.90
2019-02-06T09:56:08.921Z,17.42
2019-02-06T09:58:10.845Z,18.05
2019-02-06T10:00:16.304Z,19.17
2019-02-06T10:02:18.097Z,16.65
2019-02-06T10:04:19.826Z,17.10
2019-02-06T10:06:21.987Z,15.70
2019-02-06T10:08:24.096Z,17.80
2019-02-06T10:10:26.181Z,16.32
2019-02-06T10:12:27.937Z,19.75
2019-02-06T10:14:29.750Z,16.17
2019-02-06T10:16:31.445Z,16.70
2019-02-06T10:18:33.179Z,16.60
2019-02-06T10:20:37.660Z,16.50
2019-02-06T10:22:39.593Z,16.15
2019-02-06T10:24:41.458Z,15.30
2019-02-06T10:26:43.274Z,16.40
2019-02-06T10:28:45.197Z,14.43
2019-02-06T10:30:48.872Z,13.95
2019-02-06T10:32:50.809Z,14.38
2019-02-06T10:34:52.973Z,16.23
2019-02-06T10:36:54.700Z,14.90
2019-02-06T10:38:56.601Z,15.50
2019-02-06T10:40:58.525Z,14.78
2019-02-06T10:43:00.457Z,14.13
2019-02-06T10:45:03.259Z,11.73
2019-02-06T10:47:05.161Z,13.05
2019-02-06T10:49:07.153Z,13.62
2019-02-06T10:51:15.194Z,15.58
2019-02-06T10:53:17.441Z,12.88
2019-02-06T10:55:19.397Z,13.75
2019-02-06T10:57:23.263Z,14.68
2019-02-06T10:59:24.996Z,12.18
2019-02-06T11:01:27.049Z,13.22
2019-02-06T11:03:28.870Z,13.40
2019-02-06T11:05:30.829Z,13.90
2019-02-06T11:07:32.835Z,14.40
2019-02-06T11:09:45.770Z,12.88
2019-02-06T11:11:38.481Z,14.07
2019-02-06T11:13:40.476Z,13.62
2019-02-06T11:15:42.213Z,14.50
2019-02-06T11:17:44.143Z,13.68
2019-02-06T11:19:46.274Z,14.70
2019-02-06T11:21:48.008Z,15.25
2019-02-06T11:23:49.845Z,15.78
2019-02-06T11:25:51.720Z,13.35
2019-02-06T11:27:53.638Z,12.88
2019-02-06T11:29:55.393Z,15.13
2019-02-06T11:31:57.145Z,13.48
2019-02-06T11:33:58.986Z,15.38
2019-02-06T11:38:31.148Z,15.38
2019-02-06T11:40:33.161Z,16.20
2019-02-06T11:42:34.868Z,14.93
2019-02-06T11:44:36.631Z,15.53
2019-02-06T11:46:38.324Z,15.83
2019-02-06T11:48:40.137Z,14.90
2019-02-06T11:53:27.484Z,15.38
2019-02-06T11:55:29.610Z,15.72
2019-02-06T11:57:31.558Z,17.90
2019-02-06T11:59:33.262Z,17.82
2019-02-06T12:01:39.487Z,16.12
2019-02-06T12:03:41.641Z,15.65
2019-02-06T12:05:44.331Z,16.17
2019-02-06T12:07:46.451Z,18.35
2019-02-06T12:09:50.078Z,16.90
2019-02-06T12:11:52.043Z,16.60
2019-02-06T12:13:53.777Z,18.70
2019-02-06T12:15:55.610Z,18.62
2019-02-06T12:17:57.397Z,19.48
2019-02-06T12:20:03.899Z,17.92
2019-02-06T12:22:05.789Z,18.87
2019-02-06T12:24:07.802Z,18.00
2019-02-06T12:26:09.774Z,20.02
2019-02-06T12:28:17.718Z,18.62
2019-02-06T12:30:45.882Z,17.42
2019-02-06T12:32:52.368Z,19.67
2019-02-06T12:34:53.090Z,19.77
2019-02-06T12:36:55.101Z,18.62
2019-02-06T12:39:00.289Z,17.10
2019-02-06T12:41:02.509Z,17.75
2019-02-06T12:43:05.029Z,19.73
2019-02-06T12:45:28.374Z,19.82
2019-02-06T12:47:30.391Z,19.48
2019-02-06T12:49:32.208Z,17.62
2019-02-06T12:51:34.285Z,18.32
2019-02-06T12:53:36.078Z,19.10
2019-02-06T12:55:38.161Z,15.83
2019-02-06T12:57:40.123Z,19.40
2019-02-06T12:59:50.600Z,16.52
2019-02-06T13:01:55.525Z,17.52
2019-02-06T13:04:04.656Z,17.52
2019-02-06T13:06:07.722Z,19.98
2019-02-06T13:08:19.998Z,18.42
2019-02-06T13:10:32.871Z,17.35
2019-02-06T13:12:27.392Z,19.40
2019-02-06T13:14:29.365Z,16.50
2019-02-06T13:16:31.104Z,18.62
2019-02-06T13:18:33.321Z,17.73
2019-02-06T13:20:35.380Z,17.50
2019-02-06T13:22:37.289Z,17.32
2019-02-06T13:24:39.017Z,20.10
2019-02-06T13:26:44.041Z,18.87
2019-02-06T13:28:44.741Z,19.32
2019-02-06T13:30:46.665Z,18.15
2019-02-06T13:32:48.789Z,18.80
2019-02-06T13:34:57.410Z,19.62
2019-02-06T13:36:59.499Z,17.98
2019-02-06T13:39:01.405Z,18.52
2019-02-06T13:41:04.786Z,19.48
2019-02-06T13:43:14.409Z,19.90
2019-02-06T13:45:21.362Z,17.85
2019-02-06T13:47:42.231Z,16.70
2019-02-06T13:49:46.876Z,20.50
2019-02-06T13:51:47.824Z,18.75
2019-02-06T13:53:49.769Z,21.42
2019-02-06T13:55:51.701Z,18.82
2019-02-06T13:57:53.673Z,21.93
2019-02-06T13:59:55.778Z,19.98
2019-02-06T14:01:57.541Z,19.85
2019-02-06T14:03:59.484Z,22.52
2019-02-06T14:06:01.803Z,20.50
2019-02-06T14:08:09.132Z,19.05
2019-02-06T14:10:12.655Z,21.02
2019-02-06T14:12:14.400Z,21.10
2019-02-06T14:14:16.217Z,21.15
2019-02-06T14:16:18.101Z,21.80
2019-02-06T14:18:20.422Z,23.22
2019-02-06T14:20:22.578Z,20.68
2019-02-06T14:22:26.003Z,21.27
2019-02-06T14:24:54.292Z,24.43
2019-02-06T14:27:38.698Z,23.57
2019-02-06T14:30:34.366Z,19.82
2019-02-06T14:33:01.847Z,21.07
2019-02-06T14:35:49.768Z,21.45
2019-02-06T14:38:25.124Z,20.85
2019-02-06T14:40:53.477Z,20.95
2019-02-06T14:43:36.828Z,20.05
2019-02-06T15:00:27.138Z,22.22
2019-02-06T15:03:20.060Z,20.25
2019-02-06T15:06:01.522Z,19.73
2019-02-06T15:09:04.031Z,18.70
2019-02-06T15:11:56.910Z,19.30
2019-02-06T15:14:39.460Z,19.15
2019-02-06T15:17:34.449Z,19.15
2019-02-06T15:19:55.265Z,20.75
2019-02-06T15:22:24.733Z,19.80
2019-02-06T15:24:51.594Z,20.75
2019-02-06T15:27:30.003Z,23.05
2019-02-06T15:30:19.021Z,20.60
2019-02-06T15:32:55.533Z,21.27
2019-02-06T15:35:34.388Z,22.35
2019-02-06T15:38:14.033Z,21.45
2019-02-06T15:40:44.510Z,21.60
2019-02-06T15:43:15.453Z,20.72
2019-02-06T15:45:48.142Z,22.90
2019-02-06T15:48:12.054Z,23.38
2019-02-06T15:51:16.865Z,21.70
2019-02-06T15:54:06.858Z,19.60
2019-02-06T15:56:56.509Z,20.62
2019-02-06T15:59:40.089Z,22.37
2019-02-06T16:02:30.024Z,22.73
2019-02-06T16:08:20.430Z,21.62
2019-02-06T16:10:48.002Z,21.75
2019-02-06T16:13:14.949Z,23.18
2019-02-06T16:15:32.681Z,24.43
2019-02-06T16:17:53.208Z,24.60
2019-02-06T16:20:42.855Z,23.65
2019-02-06T16:23:22.909Z,23.38
2019-02-06T16:25:50.826Z,23.95
2019-02-06T16:28:43.647Z,23.85
2019-02-06T16:31:21.500Z,24.57
2019-02-06T16:33:59.297Z,25.45
2019-02-06T16:36:55.776Z,25.57
2019-02-06T16:39:42.158Z,24.75
2019-02-06T16:42:08.527Z,27.62
2019-02-06T16:44:57.642Z,26.52
2019-02-06T16:47:14.423Z,27.02
2019-02-06T16:49:42.933Z,25.37
2019-02-06T16:52:23.935Z,26.05
2019-02-06T16:54:50.701Z,29.05
2019-02-06T16:57:30.134Z,27.17
2019-02-06T17:00:21.619Z,28.32
2019-02-06T17:03:05.852Z,27.45
2019-02-06T17:05:31.087Z,26.40
2019-02-06T17:07:52.941Z,28.25
2019-02-06T17:10:37.267Z,26.12
2019-02-06T17:13:18.377Z,27.62
2019-02-06T17:15:46.734Z,28.05
2019-02-06T17:18:26.524Z,27.42
2019-02-06T17:20:57.838Z,28.83
2019-02-06T17:23:34.939Z,28.57
2019-02-06T17:26:20.524Z,28.52
2019-02-06T17:29:03.259Z,28.47
2019-02-06T17:31:49.282Z,27.22
2019-02-06T17:34:47.072Z,28.42
2019-02-06T17:37:24.926Z,28.60
2019-02-06T17:40:16.781Z,28.75
2019-02-06T17:42:50.119Z,32.13
2019-02-06T17:45:34.738Z,31.70
2019-02-06T17:48:00.994Z,32.67
2019-02-06T17:50:33.551Z,32.48
2019-02-06T17:53:12.073Z,34.53
2019-02-06T17:55:22.259Z,32.50
2019-02-06T17:57:24.096Z,36.20
2019-02-06T17:59:25.811Z,34.35
2019-02-06T18:01:36.941Z,32.48
2019-02-06T18:03:45.542Z,34.23
2019-02-06T18:05:47.813Z,36.75
2019-02-06T18:07:49.711Z,37.53
2019-02-06T18:09:51.850Z,33.85
2019-02-06T18:11:53.669Z,38.00
2019-02-06T18:13:56.658Z,35.60
2019-02-06T18:15:59.027Z,38.25
2019-02-06T18:18:03.191Z,38.20
2019-02-06T18:20:34.321Z,37.23
2019-02-06T18:22:37.676Z,39.60
2019-02-06T18:24:46.445Z,39.67
2019-02-06T18:26:56.660Z,36.40
2019-02-06T18:28:58.383Z,39.03
2019-02-06T18:31:01.633Z,40.25
2019-02-06T18:33:04.347Z,35.43
2019-02-06T18:35:06.833Z,36.95
2019-02-06T18:37:09.399Z,36.88
2019-02-06T18:39:12.907Z,37.80
2019-02-06T18:41:14.818Z,39.90
2019-02-06T18:43:16.745Z,38.88
2019-02-06T18:45:22.029Z,41.08
2019-02-06T18:47:24.124Z,43.95
2019-02-06T18:49:26.033Z,40.10
2019-02-06T18:51:27.853Z,40.70
2019-02-06T18:53:29.758Z,40.60
2019-02-06T18:55:31.577Z,40.73
2019-02-06T18:57:41.247Z,41.68
2019-02-06T18:59:43.494Z,40.38
2019-02-06T19:01:45.479Z,44.35
2019-02-06T19:03:47.531Z,43.33
2019-02-06T19:05:56.644Z,41.92
2019-02-06T19:07:58.578Z,40.28
2019-02-06T19:10:00.588Z,43.50
2019-02-06T19:12:03.035Z,42.30
2019-02-06T19:14:05.667Z,41.28
2019-02-06T19:16:07.670Z,42.20
2019-02-06T19:18:09.954Z,40.48
2019-02-06T19:20:12.221Z,38.23
2019-02-06T19:22:14.024Z,40.20
2019-02-06T19:24:17.801Z,37.95
2019-02-06T19:26:19.517Z,39.20
2019-02-06T19:28:21.574Z,38.05
2019-02-06T19:30:28.769Z,38.83
2019-02-06T19:32:30.909Z,40.95
2019-02-06T19:34:32.772Z,42.75
2019-02-06T19:36:36.685Z,40.60
2019-02-06T19:38:38.581Z,37.50
2019-02-06T19:40:41.691Z,40.67
2019-02-06T19:42:43.741Z,39.65
2019-02-06T19:44:45.682Z,37.10
2019-02-06T19:46:47.612Z,38.90
2019-02-06T19:48:49.442Z,40.73
2019-02-06T19:50:52.782Z,39.05
2019-02-06T19:52:57.325Z,40.30
2019-02-06T19:54:59.246Z,39.13
2019-02-06T19:57:01.541Z,40.98
2019-02-06T19:59:03.766Z,39.48
2019-02-06T20:01:05.918Z,40.10
2019-02-06T20:03:08.365Z,37.70
2019-02-06T20:05:12.459Z,37.60
2019-02-06T20:07:14.571Z,39.80
2019-02-06T20:09:16.788Z,39.10
2019-02-06T20:11:18.909Z,39.95
2019-02-06T20:13:20.819Z,37.10
2019-02-06T20:15:23.226Z,42.05
2019-02-06T20:17:24.969Z,41.18
2019-02-06T20:19:30.945Z,39.65
2019-02-06T20:21:32.787Z,38.35
2019-02-06T20:23:34.820Z,36.77
2019-02-06T20:25:45.336Z,38.60
2019-02-06T20:27:51.899Z,39.75
2019-02-06T20:29:55.081Z,40.00
2019-02-06T20:31:56.821Z,40.73
2019-02-06T20:33:59.276Z,40.90
2019-02-06T20:36:01.151Z,40.17
2019-02-06T20:38:03.300Z,40.58
2019-02-06T20:40:09.287Z,40.52
2019-02-06T20:42:11.510Z,41.15
2019-02-06T20:44:13.370Z,44.75
2019-02-06T20:46:15.322Z,42.35
2019-02-06T20:48:24.630Z,44.73
2019-02-06T20:50:27.549Z,44.08
2019-02-06T20:52:41.252Z,46.00
2019-02-06T20:54:43.205Z,42.83
2019-02-06T20:56:47.542Z,43.42
2019-02-06T20:59:11.754Z,44.10
2019-02-06T21:01:13.501Z,45.30
2019-02-06T21:03:15.581Z,44.20
2019-02-06T21:05:17.958Z,46.10
2019-02-06T21:07:19.678Z,42.70
2019-02-06T21:09:29.094Z,43.50
2019-02-06T21:11:30.812Z,41.68
2019-02-06T21:13:33.913Z,43.83
2019-02-06T21:15:36.535Z,43.45
2019-02-06T21:17:38.370Z,42.98
2019-02-06T21:19:40.250Z,42.05
2019-02-06T21:21:42.196Z,46.92
2019-02-06T21:23:44.513Z,44.10
2019-02-06T21:25:52.172Z,45.45
2019-02-06T21:27:53.876Z,45.78
2019-02-06T21:29:55.784Z,45.33
2019-02-06T21:31:57.693Z,45.55
2019-02-06T21:33:59.402Z,49.95
2019-02-06T21:36:01.130Z,47.08
2019-02-06T21:38:03.162Z,45.70
2019-02-06T21:40:13.923Z,46.18
2019-02-06T21:42:15.628Z,45.83
2019-02-06T21:44:23.409Z,48.30
2019-02-06T21:46:25.123Z,48.28
2019-02-06T21:48:26.867Z,45.17
2019-02-06T21:50:34.777Z,48.15
2019-02-06T21:52:36.829Z,49.23
2019-02-06T21:54:38.548Z,47.70
2019-02-06T21:56:40.356Z,48.05
2019-02-06T21:58:42.169Z,46.33
2019-02-06T22:00:50.242Z,50.08
2019-02-06T22:02:52.390Z,49.20
2019-02-06T22:04:54.097Z,49.33
2019-02-06T22:06:55.813Z,51.60
2019-02-06T22:08:57.664Z,46.90
2019-02-06T22:10:59.607Z,46.70
2019-02-06T22:13:01.514Z,48.25
2019-02-06T22:15:06.411Z,47.93
2019-02-06T22:17:08.231Z,47.45
2019-02-06T22:19:10.140Z,45.30
2019-02-06T22:21:12.315Z,48.55
2019-02-06T22:23:14.045Z,49.63
2019-02-06T22:25:15.965Z,46.15
2019-02-06T22:27:27.041Z,48.70
2019-02-06T22:29:31.465Z,48.75
2019-02-06T22:31:33.697Z,49.60
2019-02-06T22:33:35.419Z,48.45
2019-02-06T22:35:37.182Z,47.50
2019-02-06T22:37:38.979Z,45.75
2019-02-06T22:39:40.693Z,46.20
2019-02-06T22:41:42.722Z,47.03
2019-02-06T22:43:44.434Z,48.35
2019-02-06T22:45:46.257Z,47.15
2019-02-06T22:47:48.137Z,47.85
2019-02-06T22:49:50.355Z,48.15
2019-02-06T22:51:52.073Z,49.03
2019-02-06T22:53:53.830Z,45.83
2019-02-06T22:55:55.658Z,45.90
2019-02-06T22:57:57.567Z,47.30
2019-02-06T22:59:59.477Z,44.55
2019-02-06T23:02:01.613Z,49.48
2019-02-06T23:04:04.242Z,47.90
2019-02-06T23:06:07.622Z,49.88
2019-02-06T23:08:09.537Z,52.48
2019-02-06T23:10:11.741Z,50.88
2019-02-06T23:12:13.469Z,50.35
2019-02-06T23:14:17.422Z,53.42
2019-02-06T23:16:19.226Z,53.02
2019-02-06T23:18:21.128Z,54.67
2019-02-06T23:20:23.078Z,52.27
2019-02-06T23:22:25.010Z,51.00
2019-02-06T23:24:29.839Z,51.50
2019-02-06T23:26:31.560Z,49.38
2019-02-06T23:28:33.281Z,49.73
2019-02-06T23:30:35.206Z,49.60
2019-02-06T23:32:37.200Z,51.92
2019-02-06T23:34:39.292Z,52.62
2019-02-06T23:36:41.190Z,54.67
2019-02-06T23:38:43.018Z,50.03
2019-02-06T23:40:44.841Z,53.58
2019-02-06T23:42:46.555Z,54.08
2019-02-06T23:44:48.281Z,55.12
2019-02-06T23:46:50.105Z,51.98
2019-02-06T23:48:51.815Z,53.70
2019-02-06T23:50:53.676Z,54.88
2019-02-06T23:52:55.475Z,55.75
2019-02-06T23:54:57.183Z,54.50
2019-02-06T23:56:59.037Z,54.67
2019-02-06T23:59:00.946Z,53.25
